createdAt,value
2022-09-04T00:01:16.998Z,15.50
2022-09-04T00:04:06.540Z,15.50
2022-09-04T00:06:40.449Z,15.50
2022-09-04T00:09:18.850Z,15.60
2022-09-04T00:12:01.657Z,15.60
2022-09-04T00:14:47.068Z,15.70
2022-09-04T00:17:28.462Z,15.70
2022-09-04T00:20:01.809Z,15.70
2022-09-04T00:22:35.290Z,15.70
2022-09-04T00:25:33.263Z,15.80
2022-09-04T00:28:16.121Z,15.70
2022-09-04T00:31:05.331Z,15.80
2022-09-04T00:33:41.220Z,15.70
2022-09-04T00:36:09.158Z,15.50
2022-09-04T00:38:48.848Z,15.40
2022-09-04T00:41:15.898Z,15.40
2022-09-04T00:44:04.724Z,15.40
2022-09-04T00:46:52.033Z,15.40
2022-09-04T00:49:21.866Z,15.40
2022-09-04T00:52:19.222Z,15.40
2022-09-04T00:55:23.758Z,15.40
2022-09-04T00:58:15.351Z,15.40
2022-09-04T01:00:47.286Z,15.40
2022-09-04T01:03:39.182Z,15.40
2022-09-04T01:06:36.244Z,15.50
2022-09-04T01:09:06.401Z,15.40
2022-09-04T01:11:55.366Z,15.30
2022-09-04T01:14:42.632Z,15.30
2022-09-04T01:17:24.278Z,15.40
2022-09-04T01:20:26.019Z,15.40
2022-09-04T01:23:11.619Z,15.30
2022-09-04T01:26:05.958Z,15.20
2022-09-04T01:28:53.298Z,15.40
2022-09-04T01:31:38.578Z,15.20
2022-09-04T01:34:28.545Z,15.10
2022-09-04T01:37:07.200Z,15.20
2022-09-04T01:39:38.113Z,15.10
2022-09-04T01:42:30.292Z,15.10
2022-09-04T01:44:57.570Z,15.00
2022-09-04T01:47:46.865Z,14.90
2022-09-04T01:50:23.193Z,15.10
2022-09-04T01:53:04.825Z,15.10
2022-09-04T01:55:47.724Z,14.90
2022-09-04T01:58:45.205Z,14.90
2022-09-04T02:01:23.334Z,14.90
2022-09-04T02:04:08.178Z,14.90
2022-09-04T02:06:38.401Z,15.00
2022-09-04T02:09:11.643Z,15.10
2022-09-04T02:11:49.024Z,15.20
2022-09-04T02:14:22.190Z,15.20
2022-09-04T02:17:08.743Z,15.30
2022-09-04T02:19:48.258Z,15.20
2022-09-04T02:22:44.646Z,15.20
2022-09-04T02:25:29.636Z,15.20
2022-09-04T02:28:23.011Z,15.20
2022-09-04T02:30:59.501Z,15.10
2022-09-04T02:33:35.673Z,15.20
2022-09-04T02:36:17.437Z,15.30
2022-09-04T02:38:48.075Z,15.30
2022-09-04T02:41:31.870Z,15.30
2022-09-04T02:44:23.776Z,15.20
2022-09-04T02:47:27.112Z,15.40
2022-09-04T02:50:31.854Z,15.40
2022-09-04T02:53:17.875Z,15.20
2022-09-04T02:56:09.859Z,15.30
2022-09-04T02:58:39.653Z,15.20
2022-09-04T03:01:18.481Z,15.10
2022-09-04T03:03:48.429Z,15.20
2022-09-04T03:06:29.207Z,15.20
2022-09-04T03:09:03.609Z,15.10
2022-09-04T03:11:50.673Z,15.00
2022-09-04T03:14:24.811Z,15.00
2022-09-04T03:17:06.070Z,14.90
2022-09-04T03:20:09.956Z,14.80
2022-09-04T03:23:11.469Z,14.80
2022-09-04T03:25:59.841Z,14.90
2022-09-04T03:28:38.491Z,14.80
2022-09-04T03:31:31.585Z,14.80
2022-09-04T03:34:04.622Z,15.00
2022-09-04T03:36:50.046Z,14.90
2022-09-04T03:39:27.866Z,14.90
2022-09-04T03:42:17.970Z,14.90
2022-09-04T03:45:24.209Z,14.90
2022-09-04T03:48:12.837Z,14.90
2022-09-04T03:51:04.700Z,14.90
2022-09-04T03:53:41.622Z,14.80
2022-09-04T03:56:14.935Z,14.80
2022-09-04T03:59:00.399Z,14.70
2022-09-04T04:01:46.298Z,14.60
2022-09-04T04:04:35.780Z,14.70
2022-09-04T04:07:33.112Z,14.80
2022-09-04T04:10:33.293Z,14.60
2022-09-04T04:13:12.330Z,14.60
2022-09-04T04:16:03.553Z,14.70
2022-09-04T04:19:12.570Z,14.70
2022-09-04T04:21:56.088Z,14.70
2022-09-04T04:24:28.984Z,14.60
2022-09-04T04:27:12.660Z,14.70
2022-09-04T04:29:59.997Z,14.70
2022-09-04T04:32:41.870Z,14.70
2022-09-04T04:35:18.362Z,14.80
2022-09-04T04:37:51.764Z,14.70
2022-09-04T04:40:41.597Z,14.80
2022-09-04T04:43:26.715Z,14.90
2022-09-04T04:46:20.225Z,14.90
2022-09-04T04:48:56.659Z,14.90
2022-09-04T04:51:54.778Z,14.90
2022-09-04T04:54:43.962Z,14.90
2022-09-04T04:57:40.589Z,14.90
2022-09-04T05:00:32.414Z,15.00
2022-09-04T05:03:19.655Z,15.10
2022-09-04T05:06:09.885Z,15.10
2022-09-04T05:09:13.249Z,15.10
2022-09-04T05:12:05.083Z,15.10
2022-09-04T05:14:43.928Z,15.00
2022-09-04T05:17:48.293Z,15.00
2022-09-04T05:20:23.653Z,15.20
2022-09-04T05:23:12.721Z,15.20
2022-09-04T05:26:11.698Z,15.20
2022-09-04T05:29:13.610Z,15.20
2022-09-04T05:32:10.366Z,15.20
2022-09-04T05:35:14.118Z,15.40
2022-09-04T05:37:55.496Z,15.40
2022-09-04T05:40:45.714Z,15.10
2022-09-04T05:43:38.725Z,15.40
2022-09-04T05:46:29.310Z,15.50
2022-09-04T05:49:47.002Z,15.50
2022-09-04T05:52:36.973Z,15.60
2022-09-04T05:55:25.431Z,15.70
2022-09-04T05:58:18.205Z,16.00
2022-09-04T06:01:23.695Z,15.80
2022-09-04T06:03:53.777Z,15.80
2022-09-04T06:06:22.508Z,16.00
2022-09-04T06:09:20.567Z,16.20
2022-09-04T06:12:24.338Z,16.20
2022-09-04T06:15:00.285Z,16.30
2022-09-04T06:18:09.679Z,16.10
2022-09-04T06:20:55.328Z,16.40
2022-09-04T06:23:37.421Z,16.40
2022-09-04T06:26:04.571Z,16.90
2022-09-04T06:29:20.353Z,16.70
2022-09-04T06:31:50.399Z,17.20
2022-09-04T06:34:25.452Z,17.00
2022-09-04T06:37:23.108Z,16.90
2022-09-04T06:40:10.814Z,17.10
2022-09-04T06:43:06.621Z,17.40
2022-09-04T06:45:45.698Z,17.70
2022-09-04T06:48:24.317Z,17.50
2022-09-04T06:51:24.662Z,17.40
2022-09-04T06:54:10.424Z,17.30
2022-09-04T06:56:58.705Z,17.50
2022-09-04T06:59:47.519Z,17.50
2022-09-04T07:02:45.378Z,17.50
2022-09-04T07:05:15.475Z,17.50
2022-09-04T07:08:08.785Z,17.60
2022-09-04T07:11:02.513Z,17.80
2022-09-04T07:13:44.409Z,18.00
2022-09-04T07:16:20.500Z,17.80
2022-09-04T07:19:15.770Z,17.70
2022-09-04T07:22:09.341Z,17.80
2022-09-04T07:24:56.789Z,18.20
2022-09-04T07:27:48.401Z,18.40
2022-09-04T07:30:17.481Z,18.90
2022-09-04T07:33:02.641Z,19.40
2022-09-04T07:35:42.889Z,19.90
2022-09-04T07:38:34.730Z,19.30
2022-09-04T07:41:17.705Z,19.10
2022-09-04T07:43:57.518Z,19.40
2022-09-04T07:46:43.339Z,19.30
2022-09-04T07:49:24.045Z,19.40
2022-09-04T07:51:58.147Z,20.10
2022-09-04T07:54:48.158Z,19.40
2022-09-04T07:57:21.253Z,19.60
2022-09-04T08:00:18.498Z,19.50
2022-09-04T08:03:17.649Z,19.90
2022-09-04T08:06:16.713Z,20.20
2022-09-04T08:08:53.357Z,21.60
2022-09-04T08:11:49.449Z,22.30
2022-09-04T08:14:29.890Z,22.50
2022-09-04T08:17:20.957Z,23.10
2022-09-04T08:19:54.765Z,22.30
2022-09-04T08:22:33.426Z,22.40
2022-09-04T08:25:12.362Z,22.50
2022-09-04T08:27:51.703Z,22.30
2022-09-04T08:30:21.801Z,22.80
2022-09-04T08:33:05.833Z,23.10
2022-09-04T08:35:54.414Z,23.50
2022-09-04T08:38:36.454Z,23.00
2022-09-04T08:41:21.995Z,23.30
2022-09-04T08:43:48.878Z,23.00
2022-09-04T08:46:34.669Z,23.10
2022-09-04T08:49:02.461Z,23.40
2022-09-04T08:51:49.064Z,23.40
2022-09-04T08:54:15.988Z,23.20
2022-09-04T08:56:42.814Z,23.90
2022-09-04T08:59:21.726Z,25.10
2022-09-04T09:02:04.177Z,25.70
2022-09-04T09:04:56.348Z,26.30
2022-09-04T09:07:47.979Z,26.50
2022-09-04T09:10:18.352Z,27.80
2022-09-04T09:12:45.127Z,28.10
2022-09-04T09:15:40.151Z,28.90
2022-09-04T09:18:25.722Z,29.60
2022-09-04T09:20:54.434Z,29.40
2022-09-04T09:23:29.633Z,29.80
2022-09-04T09:25:56.536Z,29.10
2022-09-04T09:28:32.584Z,30.50
2022-09-04T09:31:19.288Z,32.00
2022-09-04T09:34:11.296Z,32.10
2022-09-04T09:36:44.134Z,31.00
2022-09-04T09:39:20.010Z,30.10
2022-09-04T09:42:12.241Z,30.20
2022-09-04T09:45:00.009Z,30.10
2022-09-04T09:47:26.891Z,29.90
2022-09-04T09:49:53.677Z,30.10
2022-09-04T09:52:29.866Z,31.60
2022-09-04T09:55:08.896Z,32.90
2022-09-04T09:57:44.974Z,32.80
2022-09-04T10:00:23.646Z,32.00
2022-09-04T10:03:05.737Z,30.80
2022-09-04T10:05:41.657Z,32.50
2022-09-04T10:08:09.845Z,30.90
2022-09-04T10:10:55.837Z,30.70
2022-09-04T10:13:31.667Z,30.70
2022-09-04T10:15:58.693Z,30.30
2022-09-04T10:18:37.848Z,30.20
2022-09-04T10:21:23.248Z,32.50
2022-09-04T10:24:07.098Z,33.10
2022-09-04T10:26:42.992Z,32.40
2022-09-04T10:29:29.040Z,33.50
2022-09-04T10:31:58.617Z,34.40
2022-09-04T10:34:46.481Z,35.30
2022-09-04T10:37:22.806Z,35.40
2022-09-04T10:40:17.635Z,35.00
2022-09-04T10:42:47.541Z,34.90
2022-09-04T10:45:16.096Z,32.50
2022-09-04T10:47:58.849Z,34.20
2022-09-04T10:50:35.373Z,35.10
2022-09-04T10:53:20.784Z,35.30
2022-09-04T10:55:47.624Z,35.30
2022-09-04T10:58:23.475Z,34.00
2022-09-04T11:00:51.324Z,32.00
2022-09-04T11:03:28.366Z,30.30
2022-09-04T11:06:11.052Z,30.40
2022-09-04T11:08:39.294Z,30.60
2022-09-04T11:11:24.565Z,29.40
2022-09-04T11:13:51.840Z,28.40
2022-09-04T11:16:27.654Z,29.10
2022-09-04T11:19:10.445Z,28.70
2022-09-04T11:21:49.566Z,28.10
2022-09-04T11:24:21.034Z,28.10
2022-09-04T11:27:08.300Z,28.30
2022-09-04T11:29:54.415Z,27.60
2022-09-04T11:32:59.659Z,27.10
2022-09-04T11:35:53.776Z,27.40
2022-09-04T11:38:43.828Z,28.70
2022-09-04T11:41:29.474Z,29.00
2022-09-04T11:43:56.621Z,29.00
2022-09-04T11:46:23.513Z,31.20
2022-09-04T11:49:11.368Z,31.70
2022-09-04T11:51:40.456Z,32.40
2022-09-04T11:54:10.237Z,34.20
2022-09-04T11:56:55.719Z,35.20
2022-09-04T11:59:48.609Z,33.80
2022-09-04T12:02:28.069Z,32.80
2022-09-04T12:05:07.284Z,32.50
2022-09-04T12:07:42.957Z,32.50
2022-09-04T12:10:13.705Z,31.90
2022-09-04T12:12:43.481Z,32.90
2022-09-04T12:15:13.092Z,33.90
2022-09-04T12:17:56.446Z,35.50
2022-09-04T12:20:24.168Z,36.60
2022-09-04T12:22:54.551Z,36.20
2022-09-04T12:25:40.169Z,36.50
2022-09-04T12:28:19.328Z,35.30
2022-09-04T12:31:01.291Z,34.50
2022-09-04T12:33:34.240Z,36.50
2022-09-04T12:36:19.260Z,36.90
2022-09-04T12:38:47.309Z,38.40
2022-09-04T12:41:34.470Z,39.00
2022-09-04T12:44:04.571Z,37.90
2022-09-04T12:46:31.996Z,38.30
2022-09-04T12:48:59.072Z,39.90
2022-09-04T12:51:26.769Z,41.40
2022-09-04T12:54:09.075Z,42.50
2022-09-04T12:56:49.078Z,42.50
2022-09-04T12:59:35.748Z,42.00
2022-09-04T13:02:08.818Z,42.00
2022-09-04T13:04:38.898Z,42.00
2022-09-04T13:07:15.872Z,41.80
2022-09-04T13:09:45.615Z,42.90
2022-09-04T13:12:39.361Z,43.70
2022-09-04T13:15:08.118Z,45.10
2022-09-04T13:17:53.113Z,44.60
2022-09-04T13:20:20.833Z,44.00
2022-09-04T13:23:11.172Z,43.00
2022-09-04T13:25:46.972Z,43.70
2022-09-04T13:28:17.181Z,45.10
2022-09-04T13:30:59.950Z,45.10
2022-09-04T13:33:40.824Z,46.30
2022-09-04T13:36:11.203Z,44.50
2022-09-04T13:38:38.107Z,44.80
2022-09-04T13:41:21.130Z,45.50
2022-09-04T13:43:47.972Z,44.90
2022-09-04T13:46:17.985Z,44.90
2022-09-04T13:48:46.726Z,41.30
2022-09-04T13:51:17.861Z,41.40
2022-09-04T13:53:44.841Z,42.40
2022-09-04T13:56:16.969Z,43.60
2022-09-04T13:58:51.514Z,42.70
2022-09-04T14:01:21.762Z,44.40
2022-09-04T14:03:51.807Z,44.80
2022-09-04T14:06:20.687Z,43.60
2022-09-04T14:08:57.949Z,42.30
2022-09-04T14:11:37.353Z,41.80
2022-09-04T14:14:10.957Z,37.40
2022-09-04T14:16:39.069Z,37.10
2022-09-04T14:19:16.229Z,37.30
2022-09-04T14:22:05.106Z,41.30
2022-09-04T14:24:38.528Z,43.70
2022-09-04T14:27:19.335Z,43.10
2022-09-04T14:29:49.115Z,43.30
2022-09-04T14:32:18.739Z,43.00
2022-09-04T14:35:04.126Z,44.10
2022-09-04T14:37:42.669Z,43.50
2022-09-04T14:40:17.113Z,44.20
2022-09-04T14:42:58.108Z,43.60
2022-09-04T14:45:54.162Z,41.70
2022-09-04T14:48:22.290Z,40.70
2022-09-04T14:50:54.285Z,35.60
2022-09-04T14:53:23.138Z,32.60
2022-09-04T14:56:11.378Z,32.60
2022-09-04T14:58:43.070Z,34.90
2022-09-04T15:01:17.073Z,34.40
2022-09-04T15:03:46.942Z,35.10
2022-09-04T15:06:22.623Z,34.00
2022-09-04T15:08:53.882Z,35.70
2022-09-04T15:11:34.744Z,37.20
2022-09-04T15:14:12.396Z,39.50
2022-09-04T15:16:39.175Z,41.60
2022-09-04T15:19:25.861Z,42.30
2022-09-04T15:21:55.489Z,38.90
2022-09-04T15:24:40.965Z,39.50
2022-09-04T15:27:23.705Z,37.60
2022-09-04T15:29:53.429Z,36.10
2022-09-04T15:32:21.731Z,38.30
2022-09-04T15:34:49.707Z,39.30
2022-09-04T15:37:20.865Z,40.00
2022-09-04T15:40:13.944Z,40.00
2022-09-04T15:42:40.868Z,40.50
2022-09-04T15:45:11.485Z,40.60
2022-09-04T15:47:38.306Z,39.10
2022-09-04T15:50:16.141Z,38.90
2022-09-04T15:52:59.341Z,38.10
2022-09-04T15:55:28.280Z,36.50
2022-09-04T15:57:58.818Z,35.70
2022-09-04T16:00:29.353Z,35.50
2022-09-04T16:02:59.454Z,34.70
2022-09-04T16:05:37.616Z,33.70
2022-09-04T16:08:26.913Z,32.00
2022-09-04T16:10:57.507Z,32.70
2022-09-04T16:13:24.349Z,34.10
2022-09-04T16:15:55.464Z,37.00
2022-09-04T16:18:40.273Z,38.40
2022-09-04T16:21:34.456Z,40.50
2022-09-04T16:24:09.296Z,39.30
2022-09-04T16:26:37.079Z,39.10
2022-09-04T16:29:07.909Z,40.60
2022-09-04T16:31:35.367Z,40.50
2022-09-04T16:34:22.677Z,41.10
2022-09-04T16:36:55.639Z,39.20
2022-09-04T16:39:25.361Z,37.60
2022-09-04T16:42:10.802Z,35.50
2022-09-04T16:44:44.387Z,33.50
2022-09-04T16:47:19.509Z,31.60
2022-09-04T16:50:05.762Z,30.70
2022-09-04T16:52:32.873Z,29.20
2022-09-04T16:55:08.605Z,28.60
2022-09-04T16:57:41.797Z,28.60
2022-09-04T17:00:08.879Z,28.80
2022-09-04T17:02:41.889Z,27.90
2022-09-04T17:05:10.500Z,27.70
2022-09-04T17:07:39.737Z,27.00
2022-09-04T17:10:12.493Z,26.70
2022-09-04T17:12:57.768Z,26.40
2022-09-04T17:15:36.848Z,26.20
2022-09-04T17:18:07.901Z,25.70
2022-09-04T17:22:34.751Z,25.40
2022-09-04T17:29:05.014Z,25.30
2022-09-04T17:29:13.161Z,25.00
2022-09-04T17:29:47.708Z,24.60
2022-09-04T17:33:59.831Z,24.30
2022-09-04T17:40:33.132Z,24.00
2022-09-04T17:40:47.771Z,23.80
2022-09-04T17:41:36.747Z,23.60
2022-09-04T17:44:02.316Z,23.40
2022-09-04T17:46:32.364Z,23.20
2022-09-04T17:49:00.061Z,23.00
2022-09-04T17:51:28.452Z,23.00
2022-09-04T17:53:58.157Z,22.90
2022-09-04T17:56:32.933Z,22.50
2022-09-04T17:58:59.753Z,22.40
2022-09-04T18:01:26.562Z,22.20
2022-09-04T18:04:20.316Z,22.00
2022-09-04T18:07:33.489Z,21.80
2022-09-04T18:10:23.356Z,21.50
2022-09-04T18:13:09.024Z,21.30
2022-09-04T18:16:09.149Z,20.90
2022-09-04T18:18:50.780Z,20.70
2022-09-04T18:21:26.752Z,20.70
2022-09-04T18:24:02.761Z,20.60
2022-09-04T18:26:40.756Z,20.40
2022-09-04T18:30:06.612Z,20.50
2022-09-04T18:37:08.799Z,20.40
2022-09-04T18:37:18.390Z,20.30
2022-09-04T18:37:53.537Z,20.10
2022-09-04T18:40:43.068Z,19.80
2022-09-04T18:50:20.645Z,19.70
2022-09-04T18:50:39.645Z,19.50
2022-09-04T18:50:40.372Z,19.60
2022-09-04T18:51:52.050Z,19.40
2022-09-04T18:54:19.153Z,19.40
2022-09-04T18:56:49.092Z,19.60
2022-09-04T18:59:16.015Z,19.50
2022-09-04T19:01:42.899Z,19.60
2022-09-04T19:04:19.294Z,19.50
2022-09-04T19:06:52.936Z,19.50
2022-09-04T19:09:29.830Z,19.50
2022-09-04T19:12:08.261Z,19.20
2022-09-04T19:14:40.320Z,18.90
2022-09-04T19:17:15.086Z,18.80
2022-09-04T19:19:57.973Z,18.80
2022-09-04T19:22:33.670Z,18.70
2022-09-04T19:25:08.085Z,18.60
2022-09-04T19:27:39.185Z,18.60
2022-09-04T19:30:19.831Z,18.70
2022-09-04T19:33:13.869Z,18.70
2022-09-04T19:35:41.831Z,18.70
2022-09-04T19:42:09.405Z,18.60
2022-09-04T19:46:02.491Z,18.50
2022-09-04T19:46:09.186Z,18.40
2022-09-04T19:46:44.968Z,18.40
2022-09-04T19:49:59.777Z,18.50
2022-09-04T19:53:33.087Z,18.40
2022-09-04T19:55:23.933Z,18.40
2022-09-04T19:58:00.917Z,18.20
2022-09-04T20:00:42.500Z,18.00
2022-09-04T20:03:29.435Z,18.00
2022-09-04T20:06:20.506Z,18.10
2022-09-04T20:08:54.804Z,18.00
2022-09-04T20:11:38.032Z,18.00
2022-09-04T20:14:19.236Z,18.00
2022-09-04T20:16:50.174Z,18.00
2022-09-04T20:19:37.399Z,17.90
2022-09-04T20:22:17.050Z,17.90
2022-09-04T20:25:01.944Z,18.00
2022-09-04T20:27:40.233Z,17.90
2022-09-04T20:30:12.156Z,17.90
2022-09-04T20:32:57.823Z,17.70
2022-09-04T20:35:43.805Z,17.70
2022-09-04T20:38:20.919Z,17.60
2022-09-04T20:40:55.258Z,17.60
2022-09-04T20:43:31.560Z,17.50
2022-09-04T20:48:24.387Z,17.50
2022-09-04T20:52:58.850Z,17.40
2022-09-04T20:53:00.199Z,17.50
2022-09-04T20:54:58.906Z,17.50
2022-09-04T21:03:09.516Z,17.50
2022-09-04T21:03:09.703Z,17.60
2022-09-04T21:03:27.975Z,17.40
2022-09-04T21:06:13.584Z,17.20
2022-09-04T21:08:59.407Z,17.10
2022-09-04T21:11:41.143Z,17.10
2022-09-04T21:14:15.272Z,17.10
2022-09-04T21:16:51.269Z,17.00
2022-09-04T21:19:29.619Z,17.00
2022-09-04T21:21:56.668Z,17.00
2022-09-04T21:24:53.046Z,16.90
2022-09-04T21:27:38.883Z,16.90
2022-09-04T21:30:11.850Z,16.90
2022-09-04T21:33:28.143Z,16.80
2022-09-04T21:36:26.683Z,16.80
2022-09-04T21:39:08.641Z,16.90
2022-09-04T21:41:35.473Z,16.80
2022-09-04T21:44:08.237Z,16.90
2022-09-04T21:46:47.367Z,16.80
2022-09-04T21:49:34.508Z,16.80
2022-09-04T21:52:19.959Z,16.60
2022-09-04T21:56:21.476Z,16.60
2022-09-04T22:02:29.076Z,16.60
2022-09-04T22:02:40.455Z,16.50
2022-09-04T22:04:02.312Z,16.60
2022-09-04T22:07:07.038Z,16.50
2022-09-04T22:13:35.390Z,16.50
2022-09-04T22:13:39.301Z,16.60
2022-09-04T22:15:52.143Z,16.60
2022-09-04T22:18:37.781Z,16.50
2022-09-04T22:21:25.070Z,16.50
2022-09-04T22:24:10.641Z,16.50
2022-09-04T22:26:49.010Z,16.40
2022-09-04T22:29:26.803Z,16.40
2022-09-04T22:32:20.223Z,16.40
2022-09-04T22:35:17.231Z,16.40
2022-09-04T22:38:05.041Z,16.60
2022-09-04T22:40:36.360Z,16.50
2022-09-04T22:43:24.836Z,16.50
2022-09-04T22:46:10.642Z,16.50
2022-09-04T22:49:12.264Z,16.50
2022-09-04T22:51:58.776Z,16.40
2022-09-04T22:54:46.347Z,16.40
2022-09-04T22:57:19.893Z,16.30
2022-09-04T22:59:49.743Z,16.30
2022-09-04T23:02:19.473Z,16.20
2022-09-04T23:04:58.610Z,16.20
2022-09-04T23:12:30.346Z,16.10
2022-09-04T23:13:59.440Z,16.00
2022-09-04T23:13:59.988Z,16.00
2022-09-04T23:16:14.866Z,15.90
2022-09-04T23:22:09.991Z,15.90
2022-09-04T23:26:45.160Z,16.10
2022-09-04T23:26:52.673Z,15.90
2022-09-04T23:27:31.147Z,16.00
2022-09-04T23:30:02.138Z,16.00
2022-09-04T23:32:40.457Z,16.20
2022-09-04T23:35:16.353Z,16.20
2022-09-04T23:37:59.756Z,16.10
2022-09-04T23:40:34.977Z,16.10
2022-09-04T23:43:20.595Z,16.00
2022-09-04T23:46:01.399Z,15.90
2022-09-04T23:48:38.145Z,15.70
2022-09-04T23:51:10.797Z,15.80
2022-09-04T23:53:54.218Z,15.80
2022-09-04T23:56:33.357Z,15.90
2022-09-04T23:59:30.036Z,15.90
